sensor_id;sensor_type;location;lat;lon;timestamp;temperature;humidity
24645;DHT22;12780;45.502;9.146;2022-07-30T00:01:29;23.00;99.90
24645;DHT22;12780;45.502;9.146;2022-07-30T00:03:55;23.00;99.90
24645;DHT22;12780;45.502;9.146;2022-07-30T00:06:20;23.00;99.90
24645;DHT22;12780;45.502;9.146;2022-07-30T00:08:46;23.00;99.90
24645;DHT22;12780;45.502;9.146;2022-07-30T00:11:12;23.00;99.90
24645;DHT22;12780;45.502;9.146;2022-07-30T00:13:37;23.00;99.90
24645;DHT22;12780;45.502;9.146;2022-07-30T00:16:03;23.00;99.90
24645;DHT22;12780;45.502;9.146;2022-07-30T00:18:28;23.00;99.90
24645;DHT22;12780;45.502;9.146;2022-07-30T00:20:54;23.00;99.90
24645;DHT22;12780;45.502;9.146;2022-07-30T00:23:20;23.00;99.90
24645;DHT22;12780;45.502;9.146;2022-07-30T00:25:45;23.00;99.90
24645;DHT22;12780;45.502;9.146;2022-07-30T00:28:12;23.00;99.90
24645;DHT22;12780;45.502;9.146;2022-07-30T00:30:38;23.00;99.90
24645;DHT22;12780;45.502;9.146;2022-07-30T00:33:05;22.90;99.90
24645;DHT22;12780;45.502;9.146;2022-07-30T00:35:31;22.80;99.90
24645;DHT22;12780;45.502;9.146;2022-07-30T00:37:57;22.70;99.90
24645;DHT22;12780;45.502;9.146;2022-07-30T00:40:22;22.70;99.90
24645;DHT22;12780;45.502;9.146;2022-07-30T00:42:48;22.70;99.90
24645;DHT22;12780;45.502;9.146;2022-07-30T00:45:15;22.80;99.90
24645;DHT22;12780;45.502;9.146;2022-07-30T00:47:41;22.80;99.90
24645;DHT22;12780;45.502;9.146;2022-07-30T00:50:08;22.80;99.90
24645;DHT22;12780;45.502;9.146;2022-07-30T00:52:35;22.80;99.90
24645;DHT22;12780;45.502;9.146;2022-07-30T00:55:03;22.80;99.90
24645;DHT22;12780;45.502;9.146;2022-07-30T00:57:29;22.80;99.90
24645;DHT22;12780;45.502;9.146;2022-07-30T00:59:55;22.80;99.90
24645;DHT22;12780;45.502;9.146;2022-07-30T01:02:21;22.70;99.90
24645;DHT22;12780;45.502;9.146;2022-07-30T01:04:47;22.70;99.90
24645;DHT22;12780;45.502;9.146;2022-07-30T01:07:12;22.70;99.90
24645;DHT22;12780;45.502;9.146;2022-07-30T01:09:38;22.60;99.90
24645;DHT22;12780;45.502;9.146;2022-07-30T01:12:05;22.60;99.90
24645;DHT22;12780;45.502;9.146;2022-07-30T01:14:33;22.60;99.90
24645;DHT22;12780;45.502;9.146;2022-07-30T01:16:59;22.50;99.90
24645;DHT22;12780;45.502;9.146;2022-07-30T01:19:29;22.50;99.90
24645;DHT22;12780;45.502;9.146;2022-07-30T01:27:22;22.50;99.90
24645;DHT22;12780;45.502;9.146;2022-07-30T01:29:48;22.50;99.90
24645;DHT22;12780;45.502;9.146;2022-07-30T01:32:15;22.50;99.90
24645;DHT22;12780;45.502;9.146;2022-07-30T01:34:43;22.50;99.90
24645;DHT22;12780;45.502;9.146;2022-07-30T01:37:10;22.50;99.90
24645;DHT22;12780;45.502;9.146;2022-07-30T01:39:37;22.50;99.90
24645;DHT22;12780;45.502;9.146;2022-07-30T01:42:05;22.50;99.90
24645;DHT22;12780;45.502;9.146;2022-07-30T01:44:33;22.60;99.90
24645;DHT22;12780;45.502;9.146;2022-07-30T01:47:00;22.60;99.90
24645;DHT22;12780;45.502;9.146;2022-07-30T01:49:28;22.60;99.90
24645;DHT22;12780;45.502;9.146;2022-07-30T01:51:54;22.60;99.90
24645;DHT22;12780;45.502;9.146;2022-07-30T01:54:23;22.60;99.90
24645;DHT22;12780;45.502;9.146;2022-07-30T01:56:51;22.60;99.90
24645;DHT22;12780;45.502;9.146;2022-07-30T01:59:19;22.60;99.90
24645;DHT22;12780;45.502;9.146;2022-07-30T02:01:45;22.60;99.90
24645;DHT22;12780;45.502;9.146;2022-07-30T02:04:11;22.50;99.90
24645;DHT22;12780;45.502;9.146;2022-07-30T02:06:45;22.60;99.90
24645;DHT22;12780;45.502;9.146;2022-07-30T02:09:14;22.50;99.90
24645;DHT22;12780;45.502;9.146;2022-07-30T02:11:42;22.50;99.90
24645;DHT22;12780;45.502;9.146;2022-07-30T02:14:33;22.50;99.90
24645;DHT22;12780;45.502;9.146;2022-07-30T02:17:03;22.50;99.90
24645;DHT22;12780;45.502;9.146;2022-07-30T02:19:38;22.50;99.90
24645;DHT22;12780;45.502;9.146;2022-07-30T02:22:08;22.50;99.90
24645;DHT22;12780;45.502;9.146;2022-07-30T02:24:36;22.50;99.90
24645;DHT22;12780;45.502;9.146;2022-07-30T02:27:11;22.50;99.90
24645;DHT22;12780;45.502;9.146;2022-07-30T02:29:39;22.50;99.90
24645;DHT22;12780;45.502;9.146;2022-07-30T02:32:09;22.50;99.90
24645;DHT22;12780;45.502;9.146;2022-07-30T02:34:38;22.50;99.90
24645;DHT22;12780;45.502;9.146;2022-07-30T02:37:05;22.40;99.90
24645;DHT22;12780;45.502;9.146;2022-07-30T02:39:32;22.40;99.90
24645;DHT22;12780;45.502;9.146;2022-07-30T02:41:59;22.40;99.90
24645;DHT22;12780;45.502;9.146;2022-07-30T02:44:25;22.40;99.90
24645;DHT22;12780;45.502;9.146;2022-07-30T02:46:55;22.40;99.90
24645;DHT22;12780;45.502;9.146;2022-07-30T02:49:21;22.30;99.90
24645;DHT22;12780;45.502;9.146;2022-07-30T02:51:48;22.30;99.90
24645;DHT22;12780;45.502;9.146;2022-07-30T02:54:17;22.30;99.90
24645;DHT22;12780;45.502;9.146;2022-07-30T02:56:47;22.20;99.90
24645;DHT22;12780;45.502;9.146;2022-07-30T02:59:15;22.20;99.90
24645;DHT22;12780;45.502;9.146;2022-07-30T03:01:42;22.20;99.90
24645;DHT22;12780;45.502;9.146;2022-07-30T03:04:09;22.20;99.90
24645;DHT22;12780;45.502;9.146;2022-07-30T03:06:35;22.20;99.90
24645;DHT22;12780;45.502;9.146;2022-07-30T03:09:02;22.20;99.90
24645;DHT22;12780;45.502;9.146;2022-07-30T03:11:30;22.10;99.90
24645;DHT22;12780;45.502;9.146;2022-07-30T03:13:56;22.10;99.90
24645;DHT22;12780;45.502;9.146;2022-07-30T03:16:23;22.10;99.90
24645;DHT22;12780;45.502;9.146;2022-07-30T03:18:52;22.00;99.90
24645;DHT22;12780;45.502;9.146;2022-07-30T03:21:19;22.00;99.90
24645;DHT22;12780;45.502;9.146;2022-07-30T03:23:48;22.00;99.90
24645;DHT22;12780;45.502;9.146;2022-07-30T03:26:15;22.00;99.90
24645;DHT22;12780;45.502;9.146;2022-07-30T03:28:45;22.00;99.90
24645;DHT22;12780;45.502;9.146;2022-07-30T03:31:13;22.00;99.90
24645;DHT22;12780;45.502;9.146;2022-07-30T03:33:40;22.00;99.90
24645;DHT22;12780;45.502;9.146;2022-07-30T03:36:07;22.00;99.90
24645;DHT22;12780;45.502;9.146;2022-07-30T03:38:35;22.00;99.90
24645;DHT22;12780;45.502;9.146;2022-07-30T03:41:02;21.90;99.90
24645;DHT22;12780;45.502;9.146;2022-07-30T03:43:28;21.90;99.90
24645;DHT22;12780;45.502;9.146;2022-07-30T03:45:55;21.90;99.90
24645;DHT22;12780;45.502;9.146;2022-07-30T03:48:22;21.90;99.90
24645;DHT22;12780;45.502;9.146;2022-07-30T03:50:49;21.90;99.90
24645;DHT22;12780;45.502;9.146;2022-07-30T03:53:16;21.90;99.90
24645;DHT22;12780;45.502;9.146;2022-07-30T03:55:43;21.80;99.90
24645;DHT22;12780;45.502;9.146;2022-07-30T03:58:08;21.80;99.90
24645;DHT22;12780;45.502;9.146;2022-07-30T04:00:37;21.80;99.90
24645;DHT22;12780;45.502;9.146;2022-07-30T04:03:04;21.80;99.90
24645;DHT22;12780;45.502;9.146;2022-07-30T04:05:30;21.80;99.90
24645;DHT22;12780;45.502;9.146;2022-07-30T04:07:55;21.80;99.90
24645;DHT22;12780;45.502;9.146;2022-07-30T04:10:21;21.90;99.90
24645;DHT22;12780;45.502;9.146;2022-07-30T04:12:47;21.90;99.90
24645;DHT22;12780;45.502;9.146;2022-07-30T04:15:12;21.90;99.90
24645;DHT22;12780;45.502;9.146;2022-07-30T04:17:50;21.90;99.90
24645;DHT22;12780;45.502;9.146;2022-07-30T04:20:21;21.90;99.90
24645;DHT22;12780;45.502;9.146;2022-07-30T04:22:48;21.90;99.90
24645;DHT22;12780;45.502;9.146;2022-07-30T04:25:15;21.90;99.90
24645;DHT22;12780;45.502;9.146;2022-07-30T04:27:41;21.90;99.90
24645;DHT22;12780;45.502;9.146;2022-07-30T04:30:07;21.80;99.90
24645;DHT22;12780;45.502;9.146;2022-07-30T04:32:34;21.70;99.90
24645;DHT22;12780;45.502;9.146;2022-07-30T04:35:00;21.60;99.90
24645;DHT22;12780;45.502;9.146;2022-07-30T04:37:27;21.60;99.90
24645;DHT22;12780;45.502;9.146;2022-07-30T04:39:53;21.60;99.90
24645;DHT22;12780;45.502;9.146;2022-07-30T04:42:25;21.60;99.90
24645;DHT22;12780;45.502;9.146;2022-07-30T04:44:51;21.70;99.90
24645;DHT22;12780;45.502;9.146;2022-07-30T04:47:18;21.80;99.90
24645;DHT22;12780;45.502;9.146;2022-07-30T04:49:44;21.70;99.90
24645;DHT22;12780;45.502;9.146;2022-07-30T04:52:11;21.80;99.90
24645;DHT22;12780;45.502;9.146;2022-07-30T04:54:58;21.90;99.90
24645;DHT22;12780;45.502;9.146;2022-07-30T04:57:26;21.90;99.90
24645;DHT22;12780;45.502;9.146;2022-07-30T04:59:53;21.90;99.90
24645;DHT22;12780;45.502;9.146;2022-07-30T05:02:19;21.80;99.90
24645;DHT22;12780;45.502;9.146;2022-07-30T05:04:48;21.90;99.90
24645;DHT22;12780;45.502;9.146;2022-07-30T05:07:14;21.80;99.90
24645;DHT22;12780;45.502;9.146;2022-07-30T05:09:40;21.90;99.90
24645;DHT22;12780;45.502;9.146;2022-07-30T05:12:06;21.90;99.90
24645;DHT22;12780;45.502;9.146;2022-07-30T05:14:32;21.90;99.90
24645;DHT22;12780;45.502;9.146;2022-07-30T05:16:58;21.90;99.90
24645;DHT22;12780;45.502;9.146;2022-07-30T05:19:24;21.90;99.90
24645;DHT22;12780;45.502;9.146;2022-07-30T05:21:49;21.90;99.90
24645;DHT22;12780;45.502;9.146;2022-07-30T05:24:15;21.90;99.90
24645;DHT22;12780;45.502;9.146;2022-07-30T05:26:41;21.90;99.90
24645;DHT22;12780;45.502;9.146;2022-07-30T05:29:06;21.90;99.90
24645;DHT22;12780;45.502;9.146;2022-07-30T05:31:32;21.90;99.90
24645;DHT22;12780;45.502;9.146;2022-07-30T05:33:58;21.90;99.90
24645;DHT22;12780;45.502;9.146;2022-07-30T05:36:24;21.90;99.90
24645;DHT22;12780;45.502;9.146;2022-07-30T05:38:50;22.00;99.90
24645;DHT22;12780;45.502;9.146;2022-07-30T05:41:15;22.00;99.90
24645;DHT22;12780;45.502;9.146;2022-07-30T05:43:41;22.00;99.90
24645;DHT22;12780;45.502;9.146;2022-07-30T05:46:07;22.00;99.90
24645;DHT22;12780;45.502;9.146;2022-07-30T05:48:33;22.20;99.90
24645;DHT22;12780;45.502;9.146;2022-07-30T05:51:01;22.10;99.90
24645;DHT22;12780;45.502;9.146;2022-07-30T05:53:26;22.10;99.90
24645;DHT22;12780;45.502;9.146;2022-07-30T05:55:52;22.10;99.90
24645;DHT22;12780;45.502;9.146;2022-07-30T05:58:18;22.10;99.90
24645;DHT22;12780;45.502;9.146;2022-07-30T06:00:44;22.10;99.90
24645;DHT22;12780;45.502;9.146;2022-07-30T06:03:09;22.10;99.90
24645;DHT22;12780;45.502;9.146;2022-07-30T06:05:36;22.20;99.90
24645;DHT22;12780;45.502;9.146;2022-07-30T06:08:02;22.20;99.90
24645;DHT22;12780;45.502;9.146;2022-07-30T06:10:27;22.20;99.90
24645;DHT22;12780;45.502;9.146;2022-07-30T06:12:53;22.30;99.90
24645;DHT22;12780;45.502;9.146;2022-07-30T06:15:19;22.30;99.90
24645;DHT22;12780;45.502;9.146;2022-07-30T06:17:45;22.30;99.90
24645;DHT22;12780;45.502;9.146;2022-07-30T06:20:13;22.40;99.90
24645;DHT22;12780;45.502;9.146;2022-07-30T06:22:39;22.40;99.90
24645;DHT22;12780;45.502;9.146;2022-07-30T06:25:06;22.50;99.90
24645;DHT22;12780;45.502;9.146;2022-07-30T06:27:32;22.60;99.90
24645;DHT22;12780;45.502;9.146;2022-07-30T06:30:05;22.60;99.90
24645;DHT22;12780;45.502;9.146;2022-07-30T06:32:31;22.70;99.90
24645;DHT22;12780;45.502;9.146;2022-07-30T06:34:56;22.70;99.90
24645;DHT22;12780;45.502;9.146;2022-07-30T06:37:22;22.80;99.90
24645;DHT22;12780;45.502;9.146;2022-07-30T06:39:48;22.80;99.90
24645;DHT22;12780;45.502;9.146;2022-07-30T06:42:13;23.00;99.90
24645;DHT22;12780;45.502;9.146;2022-07-30T06:44:39;23.10;99.90
24645;DHT22;12780;45.502;9.146;2022-07-30T06:47:05;23.20;99.90
24645;DHT22;12780;45.502;9.146;2022-07-30T06:49:32;23.30;99.90
24645;DHT22;12780;45.502;9.146;2022-07-30T06:51:58;23.30;99.90
24645;DHT22;12780;45.502;9.146;2022-07-30T06:54:24;23.40;99.90
24645;DHT22;12780;45.502;9.146;2022-07-30T06:56:49;23.50;99.90
24645;DHT22;12780;45.502;9.146;2022-07-30T06:59:15;23.50;99.90
24645;DHT22;12780;45.502;9.146;2022-07-30T07:01:41;23.50;99.90
24645;DHT22;12780;45.502;9.146;2022-07-30T07:04:06;23.60;99.90
24645;DHT22;12780;45.502;9.146;2022-07-30T07:06:32;23.70;99.90
24645;DHT22;12780;45.502;9.146;2022-07-30T07:08:58;23.80;99.90
24645;DHT22;12780;45.502;9.146;2022-07-30T07:11:24;23.90;99.90
24645;DHT22;12780;45.502;9.146;2022-07-30T07:13:49;23.90;99.90
24645;DHT22;12780;45.502;9.146;2022-07-30T07:16:15;24.00;99.90
24645;DHT22;12780;45.502;9.146;2022-07-30T07:18:41;24.00;99.90
24645;DHT22;12780;45.502;9.146;2022-07-30T07:21:06;24.10;99.90
24645;DHT22;12780;45.502;9.146;2022-07-30T07:23:33;24.10;99.90
24645;DHT22;12780;45.502;9.146;2022-07-30T07:25:59;24.10;99.90
24645;DHT22;12780;45.502;9.146;2022-07-30T07:28:25;24.20;99.90
24645;DHT22;12780;45.502;9.146;2022-07-30T07:30:51;24.20;99.90
24645;DHT22;12780;45.502;9.146;2022-07-30T07:33:17;24.30;99.90
24645;DHT22;12780;45.502;9.146;2022-07-30T07:35:43;24.40;99.90
24645;DHT22;12780;45.502;9.146;2022-07-30T07:38:08;24.40;99.90
24645;DHT22;12780;45.502;9.146;2022-07-30T07:40:34;24.50;99.90
24645;DHT22;12780;45.502;9.146;2022-07-30T07:43:00;24.50;99.90
24645;DHT22;12780;45.502;9.146;2022-07-30T07:45:25;24.60;99.90
24645;DHT22;12780;45.502;9.146;2022-07-30T07:47:51;24.60;99.90
24645;DHT22;12780;45.502;9.146;2022-07-30T07:50:17;24.70;99.90
24645;DHT22;12780;45.502;9.146;2022-07-30T07:52:44;24.70;99.90
24645;DHT22;12780;45.502;9.146;2022-07-30T07:55:10;24.80;99.90
24645;DHT22;12780;45.502;9.146;2022-07-30T07:57:43;24.80;99.90
24645;DHT22;12780;45.502;9.146;2022-07-30T08:00:10;24.70;99.90
24645;DHT22;12780;45.502;9.146;2022-07-30T08:02:37;24.80;99.90
24645;DHT22;12780;45.502;9.146;2022-07-30T08:05:04;24.80;99.90
24645;DHT22;12780;45.502;9.146;2022-07-30T08:07:30;24.80;99.90
24645;DHT22;12780;45.502;9.146;2022-07-30T08:09:56;24.80;99.90
24645;DHT22;12780;45.502;9.146;2022-07-30T08:12:22;24.80;99.90
24645;DHT22;12780;45.502;9.146;2022-07-30T08:14:47;24.80;99.90
24645;DHT22;12780;45.502;9.146;2022-07-30T08:17:13;25.00;99.90
24645;DHT22;12780;45.502;9.146;2022-07-30T08:19:39;25.00;99.90
24645;DHT22;12780;45.502;9.146;2022-07-30T08:22:05;25.10;99.90
24645;DHT22;12780;45.502;9.146;2022-07-30T08:24:30;25.10;99.90
24645;DHT22;12780;45.502;9.146;2022-07-30T08:26:57;25.10;99.90
24645;DHT22;12780;45.502;9.146;2022-07-30T08:29:22;25.20;99.90
24645;DHT22;12780;45.502;9.146;2022-07-30T08:31:48;25.10;99.90
24645;DHT22;12780;45.502;9.146;2022-07-30T08:34:14;25.20;99.90
24645;DHT22;12780;45.502;9.146;2022-07-30T08:36:40;25.30;99.90
24645;DHT22;12780;45.502;9.146;2022-07-30T08:39:06;25.40;99.90
24645;DHT22;12780;45.502;9.146;2022-07-30T08:41:32;25.40;99.90
24645;DHT22;12780;45.502;9.146;2022-07-30T08:44:00;25.50;99.90
24645;DHT22;12780;45.502;9.146;2022-07-30T08:46:29;25.60;99.90
24645;DHT22;12780;45.502;9.146;2022-07-30T08:48:55;25.60;99.90
24645;DHT22;12780;45.502;9.146;2022-07-30T08:51:22;25.70;99.90
24645;DHT22;12780;45.502;9.146;2022-07-30T08:53:48;25.80;99.90
24645;DHT22;12780;45.502;9.146;2022-07-30T08:56:14;25.90;99.90
24645;DHT22;12780;45.502;9.146;2022-07-30T08:58:40;26.00;99.90
24645;DHT22;12780;45.502;9.146;2022-07-30T09:01:06;26.10;99.90
24645;DHT22;12780;45.502;9.146;2022-07-30T09:03:32;26.10;99.90
24645;DHT22;12780;45.502;9.146;2022-07-30T09:05:59;26.10;99.90
24645;DHT22;12780;45.502;9.146;2022-07-30T09:08:25;26.10;99.90
24645;DHT22;12780;45.502;9.146;2022-07-30T09:10:51;26.20;99.90
24645;DHT22;12780;45.502;9.146;2022-07-30T09:13:27;26.20;99.90
24645;DHT22;12780;45.502;9.146;2022-07-30T09:15:54;26.20;99.90
24645;DHT22;12780;45.502;9.146;2022-07-30T09:18:34;26.20;99.90
24645;DHT22;12780;45.502;9.146;2022-07-30T09:21:23;26.20;99.90
24645;DHT22;12780;45.502;9.146;2022-07-30T09:24:11;26.30;99.90
24645;DHT22;12780;45.502;9.146;2022-07-30T09:29:24;26.20;99.90
24645;DHT22;12780;45.502;9.146;2022-07-30T09:34:31;26.40;99.90
24645;DHT22;12780;45.502;9.146;2022-07-30T09:36:59;26.40;99.90
24645;DHT22;12780;45.502;9.146;2022-07-30T09:39:33;26.50;99.90
24645;DHT22;12780;45.502;9.146;2022-07-30T09:41:59;26.50;99.90
24645;DHT22;12780;45.502;9.146;2022-07-30T09:44:27;26.50;99.90
24645;DHT22;12780;45.502;9.146;2022-07-30T09:46:54;26.50;99.90
24645;DHT22;12780;45.502;9.146;2022-07-30T09:49:24;26.50;99.90
24645;DHT22;12780;45.502;9.146;2022-07-30T09:51:51;26.50;99.90
24645;DHT22;12780;45.502;9.146;2022-07-30T09:54:17;26.60;99.90
24645;DHT22;12780;45.502;9.146;2022-07-30T09:56:42;26.60;99.90
24645;DHT22;12780;45.502;9.146;2022-07-30T09:59:29;26.60;99.90
24645;DHT22;12780;45.502;9.146;2022-07-30T10:01:56;26.60;99.90
24645;DHT22;12780;45.502;9.146;2022-07-30T10:04:23;26.80;99.90
24645;DHT22;12780;45.502;9.146;2022-07-30T10:06:49;26.80;99.90
24645;DHT22;12780;45.502;9.146;2022-07-30T10:09:24;26.90;99.90
24645;DHT22;12780;45.502;9.146;2022-07-30T10:11:50;26.90;99.90
24645;DHT22;12780;45.502;9.146;2022-07-30T10:14:16;26.90;99.90
24645;DHT22;12780;45.502;9.146;2022-07-30T10:16:42;27.00;99.90
24645;DHT22;12780;45.502;9.146;2022-07-30T10:19:08;27.10;99.90
24645;DHT22;12780;45.502;9.146;2022-07-30T10:21:34;27.10;99.90
24645;DHT22;12780;45.502;9.146;2022-07-30T10:23:59;27.10;99.90
24645;DHT22;12780;45.502;9.146;2022-07-30T10:26:27;27.10;99.90
24645;DHT22;12780;45.502;9.146;2022-07-30T10:28:53;27.10;99.90
24645;DHT22;12780;45.502;9.146;2022-07-30T10:31:19;27.20;99.90
24645;DHT22;12780;45.502;9.146;2022-07-30T10:33:45;27.30;99.90
24645;DHT22;12780;45.502;9.146;2022-07-30T10:36:10;27.40;99.90
24645;DHT22;12780;45.502;9.146;2022-07-30T10:38:38;27.40;99.90
24645;DHT22;12780;45.502;9.146;2022-07-30T10:41:11;27.50;99.90
24645;DHT22;12780;45.502;9.146;2022-07-30T10:46:59;27.60;99.90
24645;DHT22;12780;45.502;9.146;2022-07-30T10:49:29;27.70;99.90
24645;DHT22;12780;45.502;9.146;2022-07-30T10:51:55;27.90;99.90
24645;DHT22;12780;45.502;9.146;2022-07-30T10:54:34;27.90;99.90
24645;DHT22;12780;45.502;9.146;2022-07-30T11:02:23;27.90;99.90
24645;DHT22;12780;45.502;9.146;2022-07-30T11:04:49;28.00;99.90
24645;DHT22;12780;45.502;9.146;2022-07-30T11:09:49;28.10;99.90
24645;DHT22;12780;45.502;9.146;2022-07-30T11:15:10;28.20;99.90
24645;DHT22;12780;45.502;9.146;2022-07-30T11:20:31;28.60;99.90
24645;DHT22;12780;45.502;9.146;2022-07-30T11:23:52;28.70;99.90
24645;DHT22;12780;45.502;9.146;2022-07-30T11:25:59;28.80;99.90
24645;DHT22;12780;45.502;9.146;2022-07-30T11:28:44;29.00;99.90
24645;DHT22;12780;45.502;9.146;2022-07-30T11:31:29;29.00;99.90
24645;DHT22;12780;45.502;9.146;2022-07-30T11:42:27;29.40;99.90
24645;DHT22;12780;45.502;9.146;2022-07-30T11:47:55;29.70;99.90
24645;DHT22;12780;45.502;9.146;2022-07-30T11:52:58;29.80;99.90
24645;DHT22;12780;45.502;9.146;2022-07-30T11:55:33;29.80;99.90
24645;DHT22;12780;45.502;9.146;2022-07-30T11:58:00;29.90;99.90
24645;DHT22;12780;45.502;9.146;2022-07-30T12:00:40;30.00;99.90
24645;DHT22;12780;45.502;9.146;2022-07-30T12:03:11;30.00;99.90
24645;DHT22;12780;45.502;9.146;2022-07-30T12:05:37;30.10;99.90
24645;DHT22;12780;45.502;9.146;2022-07-30T12:08:03;30.30;99.90
24645;DHT22;12780;45.502;9.146;2022-07-30T12:10:30;30.40;99.90
24645;DHT22;12780;45.502;9.146;2022-07-30T12:13:25;30.40;99.90
24645;DHT22;12780;45.502;9.146;2022-07-30T12:15:51;30.50;99.90
24645;DHT22;12780;45.502;9.146;2022-07-30T12:18:25;30.60;99.90
24645;DHT22;12780;45.502;9.146;2022-07-30T12:20:58;30.60;99.90
24645;DHT22;12780;45.502;9.146;2022-07-30T12:23:25;30.70;99.90
24645;DHT22;12780;45.502;9.146;2022-07-30T12:25:51;30.90;99.90
24645;DHT22;12780;45.502;9.146;2022-07-30T12:28:23;31.00;99.90
24645;DHT22;12780;45.502;9.146;2022-07-30T12:30:50;31.00;99.90
24645;DHT22;12780;45.502;9.146;2022-07-30T12:33:16;31.20;99.90
24645;DHT22;12780;45.502;9.146;2022-07-30T12:35:46;31.20;99.90
24645;DHT22;12780;45.502;9.146;2022-07-30T12:38:14;31.20;99.90
24645;DHT22;12780;45.502;9.146;2022-07-30T12:40:59;31.20;99.90
24645;DHT22;12780;45.502;9.146;2022-07-30T12:43:53;31.20;99.90
24645;DHT22;12780;45.502;9.146;2022-07-30T12:46:24;31.30;99.90
24645;DHT22;12780;45.502;9.146;2022-07-30T12:51:21;31.30;99.90
24645;DHT22;12780;45.502;9.146;2022-07-30T12:53:49;31.40;99.90
24645;DHT22;12780;45.502;9.146;2022-07-30T12:56:22;31.40;99.90
24645;DHT22;12780;45.502;9.146;2022-07-30T12:58:49;31.30;99.90
24645;DHT22;12780;45.502;9.146;2022-07-30T13:01:15;31.40;99.90
24645;DHT22;12780;45.502;9.146;2022-07-30T13:03:42;31.40;99.90
24645;DHT22;12780;45.502;9.146;2022-07-30T13:11:17;31.30;99.90
24645;DHT22;12780;45.502;9.146;2022-07-30T13:13:44;31.30;99.90
24645;DHT22;12780;45.502;9.146;2022-07-30T13:16:10;31.30;99.90
24645;DHT22;12780;45.502;9.146;2022-07-30T13:18:36;31.30;99.90
24645;DHT22;12780;45.502;9.146;2022-07-30T13:21:03;31.30;99.90
24645;DHT22;12780;45.502;9.146;2022-07-30T13:23:29;31.30;99.90
24645;DHT22;12780;45.502;9.146;2022-07-30T13:25:56;31.30;99.90
24645;DHT22;12780;45.502;9.146;2022-07-30T13:28:22;31.30;99.90
24645;DHT22;12780;45.502;9.146;2022-07-30T13:30:48;31.20;99.90
24645;DHT22;12780;45.502;9.146;2022-07-30T13:33:14;31.30;99.90
24645;DHT22;12780;45.502;9.146;2022-07-30T13:35:39;31.30;99.90
24645;DHT22;12780;45.502;9.146;2022-07-30T13:38:05;31.30;99.90
24645;DHT22;12780;45.502;9.146;2022-07-30T13:40:32;31.20;99.90
24645;DHT22;12780;45.502;9.146;2022-07-30T13:42:58;31.10;99.90
24645;DHT22;12780;45.502;9.146;2022-07-30T13:45:24;31.00;99.90
24645;DHT22;12780;45.502;9.146;2022-07-30T13:47:50;30.90;99.90
24645;DHT22;12780;45.502;9.146;2022-07-30T13:50:15;31.00;99.90
24645;DHT22;12780;45.502;9.146;2022-07-30T13:52:41;31.00;99.90
24645;DHT22;12780;45.502;9.146;2022-07-30T13:55:07;31.00;99.90
24645;DHT22;12780;45.502;9.146;2022-07-30T13:57:32;31.00;99.90
24645;DHT22;12780;45.502;9.146;2022-07-30T13:59:58;31.00;99.90
24645;DHT22;12780;45.502;9.146;2022-07-30T14:02:24;31.00;99.90
24645;DHT22;12780;45.502;9.146;2022-07-30T14:04:49;31.10;99.90
24645;DHT22;12780;45.502;9.146;2022-07-30T14:07:15;31.10;99.90
24645;DHT22;12780;45.502;9.146;2022-07-30T14:09:41;31.20;99.90
24645;DHT22;12780;45.502;9.146;2022-07-30T14:12:06;31.20;99.90
24645;DHT22;12780;45.502;9.146;2022-07-30T14:14:32;31.20;99.90
24645;DHT22;12780;45.502;9.146;2022-07-30T14:16:58;31.20;99.90
24645;DHT22;12780;45.502;9.146;2022-07-30T14:19:23;31.20;99.90
24645;DHT22;12780;45.502;9.146;2022-07-30T14:21:50;31.20;99.90
24645;DHT22;12780;45.502;9.146;2022-07-30T14:24:16;31.30;99.90
24645;DHT22;12780;45.502;9.146;2022-07-30T14:26:42;31.20;99.90
24645;DHT22;12780;45.502;9.146;2022-07-30T14:29:09;31.30;99.90
24645;DHT22;12780;45.502;9.146;2022-07-30T14:31:35;31.40;99.90
24645;DHT22;12780;45.502;9.146;2022-07-30T14:34:02;31.40;99.90
24645;DHT22;12780;45.502;9.146;2022-07-30T14:36:27;31.50;99.90
24645;DHT22;12780;45.502;9.146;2022-07-30T14:38:57;31.50;99.90
24645;DHT22;12780;45.502;9.146;2022-07-30T14:41:24;31.50;99.90
24645;DHT22;12780;45.502;9.146;2022-07-30T14:43:51;31.60;99.90
24645;DHT22;12780;45.502;9.146;2022-07-30T14:46:17;31.70;99.90
24645;DHT22;12780;45.502;9.146;2022-07-30T14:48:42;31.70;99.90
24645;DHT22;12780;45.502;9.146;2022-07-30T14:51:08;31.80;99.90
24645;DHT22;12780;45.502;9.146;2022-07-30T14:53:33;31.80;99.90
24645;DHT22;12780;45.502;9.146;2022-07-30T14:55:59;31.80;99.90
24645;DHT22;12780;45.502;9.146;2022-07-30T14:58:25;31.70;99.90
24645;DHT22;12780;45.502;9.146;2022-07-30T15:00:50;31.80;99.90
24645;DHT22;12780;45.502;9.146;2022-07-30T15:03:16;31.70;99.90
24645;DHT22;12780;45.502;9.146;2022-07-30T15:05:42;31.70;99.90
24645;DHT22;12780;45.502;9.146;2022-07-30T15:08:07;31.70;99.90
24645;DHT22;12780;45.502;9.146;2022-07-30T15:10:33;31.70;99.90
24645;DHT22;12780;45.502;9.146;2022-07-30T15:12:59;31.70;99.90
24645;DHT22;12780;45.502;9.146;2022-07-30T15:15:24;31.70;99.90
24645;DHT22;12780;45.502;9.146;2022-07-30T15:17:50;31.70;99.90
24645;DHT22;12780;45.502;9.146;2022-07-30T15:20:16;31.70;99.90
24645;DHT22;12780;45.502;9.146;2022-07-30T15:22:41;31.70;99.90
24645;DHT22;12780;45.502;9.146;2022-07-30T15:25:07;31.60;99.90
24645;DHT22;12780;45.502;9.146;2022-07-30T15:27:33;31.60;99.90
24645;DHT22;12780;45.502;9.146;2022-07-30T15:29:59;31.60;99.90
24645;DHT22;12780;45.502;9.146;2022-07-30T15:32:25;31.50;99.90
24645;DHT22;12780;45.502;9.146;2022-07-30T15:34:50;31.40;99.90
24645;DHT22;12780;45.502;9.146;2022-07-30T15:37:16;31.40;99.90
24645;DHT22;12780;45.502;9.146;2022-07-30T15:39:42;31.40;99.90
24645;DHT22;12780;45.502;9.146;2022-07-30T15:42:08;31.30;99.90
24645;DHT22;12780;45.502;9.146;2022-07-30T15:44:34;31.40;99.90
24645;DHT22;12780;45.502;9.146;2022-07-30T15:46:59;31.30;99.90
24645;DHT22;12780;45.502;9.146;2022-07-30T15:49:26;31.30;99.90
24645;DHT22;12780;45.502;9.146;2022-07-30T15:51:52;31.30;99.90
24645;DHT22;12780;45.502;9.146;2022-07-30T15:54:19;31.30;99.90
24645;DHT22;12780;45.502;9.146;2022-07-30T15:56:47;31.20;99.90
24645;DHT22;12780;45.502;9.146;2022-07-30T15:59:14;31.20;99.90
24645;DHT22;12780;45.502;9.146;2022-07-30T16:01:40;31.20;99.90
24645;DHT22;12780;45.502;9.146;2022-07-30T16:04:06;31.20;99.90
24645;DHT22;12780;45.502;9.146;2022-07-30T16:06:31;31.20;99.90
24645;DHT22;12780;45.502;9.146;2022-07-30T16:08:58;31.20;99.90
24645;DHT22;12780;45.502;9.146;2022-07-30T16:11:24;31.10;99.90
24645;DHT22;12780;45.502;9.146;2022-07-30T16:13:50;31.10;99.90
24645;DHT22;12780;45.502;9.146;2022-07-30T16:16:16;31.10;99.90
24645;DHT22;12780;45.502;9.146;2022-07-30T16:18:42;31.10;99.90
24645;DHT22;12780;45.502;9.146;2022-07-30T16:21:08;31.20;99.90